| time (UTC) | temp F | wind direction | speed MPH | gust MPH | rain 1hr in | rain 24hr in | rain mn in | humidity % | barometer mb |
| 20260506043028 | 78 | 46 | 1.0 | 7.0 | 0.00 | 0.00 | 0.00 | 86 | 1018.2 |
| 20260506041529 | 78 | 49 | 1.0 | 6.0 | 0.00 | 0.00 | 0.00 | 85 | 1018.2 |
| 20260506040034 | 78 | 83 | 1.0 | 6.0 | 0.00 | 0.00 | 0.00 | 84 | 1018.0 |
| 20260506034529 | 78 | 0 | 0.0 | 6.0 | 0.00 | 0.00 | 0.00 | 84 | 1018.0 |
| 20260506033029 | 78 | 90 | 2.0 | 6.0 | 0.00 | 0.00 | 0.00 | 84 | 1018.1 |
| 20260506031539 | 78 | 79 | 2.0 | 8.0 | 0.00 | 0.00 | 0.00 | 85 | 1018.0 |
| 20260506030028 | 78 | 114 | 2.0 | 7.0 | 0.00 | 0.00 | 0.00 | 84 | 1017.8 |
| 20260506024531 | 78 | 86 | 0.0 | 6.0 | 0.00 | 0.00 | 0.00 | 84 | 1017.7 |
| 20260506023049 | 78 | 67 | 2.0 | 7.0 | 0.00 | 0.00 | 0.00 | 84 | 1017.5 |
| 20260506021550 | 78 | 43 | 1.0 | 9.0 | 0.00 | 0.00 | 0.00 | 83 | 1017.4 |
| 20260506020028 | 78 | 78 | 1.0 | 10.0 | 0.00 | 0.00 | 0.00 | 84 | 1017.2 |
| 20260506014529 | 78 | 92 | 4.0 | 10.0 | 0.00 | 0.00 | 0.00 | 83 | 1016.9 |
| 20260506013034 | 79 | 51 | 4.0 | 12.0 | 0.00 | 0.00 | 0.00 | 83 | 1017.0 |
| 20260506011531 | 79 | 75 | 4.0 | 11.0 | 0.00 | 0.00 | 0.00 | 83 | 1016.8 |
| 20260506010029 | 79 | 35 | 2.0 | 11.0 | 0.00 | 0.00 | 0.00 | 83 | 1016.9 |
| 20260506004529 | 79 | 54 | 2.0 | 10.0 | 0.00 | 0.00 | 0.00 | 83 | 1016.7 |
| 20260506003030 | 80 | 86 | 1.0 | 9.0 | 0.00 | 0.00 | 0.00 | 82 | 1016.8 |
| 20260506001529 | 79 | 0 | 1.0 | 11.0 | 0.00 | 0.00 | 0.00 | 83 | 1016.7 |
| 20260506000030 | 80 | 37 | 2.0 | 8.0 | 0.00 | 0.00 | 0.00 | 83 | 1016.4 |
| 20260505234531 | 80 | 75 | 3.0 | 9.0 | 0.00 | 0.00 | 0.00 | 81 | 1016.2 |
| 20260505233028 | 80 | 94 | 2.0 | 9.0 | 0.00 | 0.00 | 0.00 | 81 | 1016.0 |
| 20260505231546 | 81 | 98 | 1.0 | 8.0 | 0.00 | 0.00 | 0.00 | 80 | 1015.7 |
| 20260505230030 | 81 | 86 | 3.0 | 7.0 | 0.00 | 0.00 | 0.00 | 79 | 1015.9 |
| 20260505224528 | 81 | 61 | 3.0 | 8.0 | 0.00 | 0.00 | 0.00 | 78 | 1016.1 |
| 20260505223030 | 82 | 76 | 2.0 | 8.0 | 0.00 | 0.00 | 0.00 | 76 | 1015.9 |
| 20260505221530 | 82 | 89 | 3.0 | 12.0 | 0.00 | 0.00 | 0.00 | 76 | 1015.8 |
| 20260505220031 | 83 | 79 | 3.0 | 12.0 | 0.00 | 0.00 | 0.00 | 76 | 1015.9 |
| 20260505214534 | 83 | 100 | 3.0 | 10.0 | 0.00 | 0.00 | 0.00 | 76 | 1015.7 |
| 20260505213036 | 83 | 77 | 3.0 | 9.0 | 0.00 | 0.00 | 0.00 | 76 | 1015.5 |
| 20260505211528 | 83 | 117 | 3.0 | 8.0 | 0.00 | 0.00 | 0.00 | 75 | 1015.5 |
| 20260505210029 | 85 | 37 | 1.0 | 11.0 | 0.00 | 0.00 | 0.00 | 74 | 1015.5 |
| 20260505204528 | 84 | 139 | 2.0 | 9.0 | 0.00 | 0.00 | 0.00 | 74 | 1015.5 |
| 20260505203042 | 83 | 208 | 5.0 | 11.0 | 0.00 | 0.00 | 0.00 | 76 | 1015.5 |
| 20260505201533 | 84 | 100 | 3.0 | 8.0 | 0.00 | 0.00 | 0.00 | 74 | 1015.7 |
| 20260505200030 | 84 | 88 | 3.0 | 9.0 | 0.00 | 0.00 | 0.00 | 75 | 1015.6 |
| 20260505194528 | 84 | 75 | 4.0 | 10.0 | 0.00 | 0.00 | 0.00 | 73 | 1015.8 |
| 20260505193033 | 85 | 94 | 3.0 | 10.0 | 0.00 | 0.00 | 0.00 | 72 | 1015.7 |
| 20260505191531 | 84 | 107 | 2.0 | 9.0 | 0.00 | 0.00 | 0.00 | 77 | 1016.1 |
| 20260505190033 | 84 | 132 | 3.0 | 13.0 | 0.00 | 0.00 | 0.00 | 77 | 1016.1 |
| 20260505184534 | 84 | 127 | 4.0 | 12.0 | 0.00 | 0.01 | 0.00 | 76 | 1016.2 |
| 20260505183029 | 84 | 79 | 2.0 | 12.0 | 0.00 | 0.01 | 0.00 | 78 | 1016.2 |
| 20260505181533 | 84 | 66 | 3.0 | 12.0 | 0.00 | 0.01 | 0.00 | 77 | 1016.4 |
| 20260505180028 | 84 | 91 | 4.0 | 11.0 | 0.00 | 0.01 | 0.00 | 76 | 1016.4 |
| 20260505174539 | 83 | 63 | 5.0 | 10.0 | 0.00 | 0.01 | 0.00 | 77 | 1016.6 |
| 20260505173029 | 84 | 103 | 2.0 | 9.0 | 0.00 | 0.01 | 0.00 | 75 | 1016.6 |
| 20260505171532 | 85 | 39 | 3.0 | 8.0 | 0.00 | 0.01 | 0.00 | 74 | 1016.6 |
| 20260505170029 | 85 | 157 | 2.0 | 11.0 | 0.00 | 0.01 | 0.00 | 74 | 1016.7 |
| 20260505164530 | 83 | 75 | 3.0 | 9.0 | 0.00 | 0.01 | 0.00 | 76 | 1016.7 |
| 20260505163033 | 86 | 101 | 1.0 | 7.0 | 0.00 | 0.01 | 0.00 | 73 | 1016.8 |
| 20260505161528 | 85 | 141 | 2.0 | 9.0 | 0.00 | 0.01 | 0.00 | 76 | 1016.8 |
| 20260505153028 | 84 | 98 | 2.0 | 8.0 | 0.00 | 0.01 | 0.00 | 77 | 1017.0 |
| 20260505151531 | 82 | 94 | 2.0 | 7.0 | 0.00 | 0.01 | 0.00 | 79 | 1017.0 |
| 20260505124528 | 81 | 0 | 0.0 | 3.0 | 0.00 | 0.01 | 0.00 | 83 | 1016.0 |
| 20260505123029 | 79 | 1 | 0.0 | 5.0 | 0.00 | 0.01 | 0.00 | 85 | 1016.0 |
| 20260505121529 | 78 | 23 | 0.0 | 3.0 | 0.00 | 0.01 | 0.00 | 88 | 1015.8 |
| 20260505120028 | 77 | 352 | 0.0 | 3.0 | 0.00 | 0.01 | 0.00 | 90 | 1015.8 |
| 20260505114530 | 75 | 0 | 0.0 | 1.0 | 0.00 | 0.01 | 0.00 | 93 | 1015.7 |
| 20260505113028 | 74 | 37 | 0.0 | 2.0 | 0.00 | 0.01 | 0.00 | 94 | 1015.6 |
| 20260505111526 | 74 | 0 | 0.0 | 1.0 | 0.00 | 0.01 | 0.00 | 95 | 1015.6 |
| 20260505101529 | 73 | 0 | 0.0 | 1.0 | 0.00 | 0.01 | 0.00 | 95 | 1015.0 |
| 20260505100027 | 73 | 0 | 0.0 | 1.0 | 0.00 | 0.01 | 0.00 | 95 | 1014.7 |
| 20260505094529 | 73 | 0 | 0.0 | 1.0 | 0.00 | 0.01 | 0.00 | 95 | 1014.9 |
| 20260505093039 | 73 | 0 | 0.0 | 1.0 | 0.00 | 0.01 | 0.00 | 94 | 1014.7 |
| 20260505091530 | 73 | 0 | 0.0 | 0.0 | 0.00 | 0.01 | 0.00 | 94 | 1014.6 |
| 20260505090028 | 73 | 57 | 0.0 | 1.0 | 0.00 | 0.01 | 0.00 | 94 | 1014.5 |
| 20260505084530 | 73 | 57 | 0.0 | 1.0 | 0.00 | 0.01 | 0.00 | 94 | 1014.5 |
| 20260505083032 | 74 | 0 | 0.0 | 2.0 | 0.00 | 0.01 | 0.00 | 93 | 1014.4 |
| 20260505081531 | 74 | 0 | 0.0 | 1.0 | 0.00 | 0.01 | 0.00 | 93 | 1014.7 |
| 20260505080030 | 74 | 0 | 0.0 | 3.0 | 0.00 | 0.01 | 0.00 | 93 | 1014.6 |
| 20260505074528 | 74 | 122 | 0.0 | 1.0 | 0.00 | 0.17 | 0.00 | 92 | 1014.8 |
| 20260505073036 | 74 | 0 | 0.0 | 1.0 | 0.00 | 0.17 | 0.00 | 92 | 1014.8 |
| 20260505071528 | 74 | 0 | 0.0 | 2.0 | 0.00 | 0.17 | 0.00 | 91 | 1014.8 |
| 20260505070028 | 74 | 0 | 0.0 | 1.0 | 0.00 | 0.17 | 0.00 | 89 | 1014.5 |
| 20260505064528 | 75 | 79 | 0.0 | 1.0 | 0.00 | 0.17 | 0.00 | 87 | 1014.7 |
| 20260505063030 | 76 | 0 | 0.0 | 1.0 | 0.00 | 0.17 | 0.00 | 85 | 1015.2 |
| 20260505061528 | 76 | 0 | 0.0 | 1.0 | 0.00 | 0.17 | 0.00 | 84 | 1015.3 |
| 20260505060032 | 76 | 0 | 0.0 | 2.0 | 0.00 | 0.17 | 0.00 | 84 | 1015.5 |
| 20260505054537 | 76 | 0 | 0.0 | 1.0 | 0.00 | 0.17 | 0.00 | 85 | 1015.7 |
| 20260505053039 | 76 | 0 | 0.0 | 1.0 | 0.00 | 0.17 | 0.00 | 84 | 1015.9 |
| 20260505051531 | 76 | 0 | 0.0 | 1.0 | 0.00 | 0.17 | 0.00 | 84 | 1016.1 |